Time;durP1;ratioP1;P1;durP2;ratioP2;P2;SDS_P1;SDS_P2;PMS_P1;PMS_P2;Temp;Humidity;BMP_temperature;BMP_pressure;BME280_temperature;BME280_humidity;BME280_pressure;Samples;Min_cycle;Max_cycle;Signal;HPM_P1;HPM_P2
2023/11/12 00:02:22;;;;;;;1999.90;999.90;;;5.90;99.90;;;;;;5074884;28;20612;-67
2023/11/12 00:04:48;;;;;;;1999.90;999.90;;;5.90;99.90;;;;;;5074717;28;20726;-67
2023/11/12 00:07:14;;;;;;;1999.90;999.90;;;5.80;99.90;;;;;;5074806;28;20462;-67
2023/11/12 00:09:40;;;;;;;1999.90;999.90;;;5.80;99.90;;;;;;5074730;28;20405;-67
2023/11/12 00:12:07;;;;;;;1999.90;999.90;;;5.80;99.90;;;;;;5074578;28;20183;-67
2023/11/12 00:14:34;;;;;;;1999.90;999.90;;;5.80;99.90;;;;;;5074391;28;20413;-66
2023/11/12 00:16:59;;;;;;;1999.90;999.90;;;6.00;99.90;;;;;;5079306;28;20413;-65
2023/11/12 00:19:25;;;;;;;1999.90;999.90;;;5.80;99.90;;;;;;5070630;28;20429;-67
2023/11/12 00:21:50;;;;;;;1999.90;999.90;;;5.80;99.90;;;;;;5074472;28;20206;-67
2023/11/12 00:24:17;;;;;;;1999.90;999.90;;;;;;;;;;5080206;28;20195;-66
2023/11/12 00:26:43;;;;;;;1999.90;999.90;;;5.80;99.90;;;;;;5083435;28;20169;-67
2023/11/12 00:29:09;;;;;;;1999.90;999.90;;;5.80;99.90;;;;;;5083935;28;20421;-67
2023/11/12 00:31:34;;;;;;;1999.90;999.90;;;5.80;99.90;;;;;;5078995;28;20769;-66
2023/11/12 00:34:00;;;;;;;1999.90;999.90;;;5.70;99.90;;;;;;5074096;28;20183;-66
2023/11/12 00:36:26;;;;;;;1999.90;999.90;;;5.70;99.90;;;;;;5074533;28;20205;-66
2023/11/12 00:38:51;;;;;;;1999.90;999.90;;;5.60;99.90;;;;;;5074395;28;20159;-66
2023/11/12 00:41:20;;;;;;;1999.90;999.90;;;5.60;99.90;;;;;;5074156;28;20841;-66
2023/11/12 00:43:45;;;;;;;1999.90;999.90;;;5.40;99.90;;;;;;5055923;28;20187;-66
2023/11/12 00:46:12;;;;;;;1999.90;999.90;;;5.40;99.90;;;;;;5074134;28;20460;-67
2023/11/12 00:48:38;;;;;;;1999.90;999.90;;;5.30;99.90;;;;;;5074230;28;20166;-66
2023/11/12 00:51:04;;;;;;;1999.90;999.90;;;5.30;99.90;;;;;;5074192;28;20427;-67
2023/11/12 00:53:30;;;;;;;1999.90;999.90;;;5.30;99.90;;;;;;5073751;28;20194;-67
2023/11/12 00:55:59;;;;;;;1999.90;999.90;;;5.30;99.90;;;;;;5073984;28;20405;-68
2023/11/12 00:58:28;;;;;;;1999.90;999.90;;;5.30;99.90;;;;;;5073738;28;20401;-67
2023/11/12 01:00:53;;;;;;;1999.90;999.90;;;5.30;99.90;;;;;;5073807;28;20815;-66
2023/11/12 01:03:19;;;;;;;1999.90;999.90;;;5.40;99.90;;;;;;5073356;28;20526;-67
2023/11/12 01:05:44;;;;;;;1999.90;999.90;;;5.20;99.90;;;;;;5073768;28;20201;-67
2023/11/12 01:08:10;;;;;;;1999.90;999.90;;;5.20;99.90;;;;;;5073642;28;20277;-67
2023/11/12 01:10:36;;;;;;;1999.90;999.90;;;5.20;99.90;;;;;;5073574;28;20163;-67
2023/11/12 01:13:02;;;;;;;1999.90;999.90;;;5.20;99.90;;;;;;5073216;28;20672;-66
2023/11/12 01:15:29;;;;;;;1999.90;999.90;;;5.20;99.90;;;;;;5073499;28;20167;-66
2023/11/12 01:17:55;;;;;;;1999.90;999.90;;;5.20;99.90;;;;;;5073447;28;20397;-66
2023/11/12 01:20:22;;;;;;;1999.90;999.90;;;5.20;99.90;;;;;;5073475;28;20417;-66
2023/11/12 01:22:48;;;;;;;1999.90;999.90;;;5.10;99.90;;;;;;5073097;28;20632;-66
2023/11/12 01:25:14;;;;;;;1999.90;999.90;;;5.00;99.90;;;;;;5073252;28;20456;-66
2023/11/12 01:27:40;;;;;;;1999.90;999.90;;;5.10;99.90;;;;;;5073149;28;20167;-66
2023/11/12 01:30:07;;;;;;;1999.90;999.90;;;5.10;99.90;;;;;;5073420;28;20776;-66
2023/11/12 01:32:33;;;;;;;1999.90;999.90;;;5.10;99.90;;;;;;5055135;28;20616;-66
2023/11/12 01:34:58;;;;;;;1999.90;999.90;;;5.10;99.90;;;;;;5073092;28;20500;-66
2023/11/12 01:37:24;;;;;;;1999.90;999.90;;;5.10;99.90;;;;;;5073036;28;20258;-67
2023/11/12 01:39:50;;;;;;;1999.90;999.90;;;5.00;99.90;;;;;;5073056;28;20171;-67
2023/11/12 01:42:15;;;;;;;1999.90;999.90;;;5.00;99.90;;;;;;5072890;28;20240;-66
2023/11/12 01:44:42;;;;;;;1999.90;999.90;;;5.00;99.90;;;;;;5072833;28;20198;-66
2023/11/12 01:47:09;;;;;;;1999.90;999.90;;;4.90;99.90;;;;;;5072995;28;20190;-67
2023/11/12 01:49:37;;;;;;;1999.90;999.90;;;4.90;99.90;;;;;;5083189;28;20926;-67
2023/11/12 01:52:04;;;;;;;1999.90;999.90;;;4.90;99.90;;;;;;5081389;28;20429;-67
2023/11/12 01:54:33;;;;;;;1999.90;999.90;;;4.90;99.90;;;;;;5060591;28;20431;-67
2023/11/12 01:57:00;;;;;;;1999.90;999.90;;;4.90;99.90;;;;;;5055026;28;20435;-66
2023/11/12 01:59:30;;;;;;;1999.90;999.90;;;4.80;99.90;;;;;;5073038;28;20401;-66
2023/11/12 02:01:57;;;;;;;1999.90;999.90;;;5.20;99.90;;;;;;5072503;28;20437;-66
2023/11/12 02:04:23;;;;;;;1999.90;999.90;;;4.70;99.90;;;;;;5072861;28;20433;-66
2023/11/12 02:06:49;;;;;;;1999.90;999.90;;;4.70;99.90;;;;;;5073916;28;20417;-67
2023/11/12 02:09:15;;;;;;;1999.90;999.90;;;4.80;99.90;;;;;;5072391;28;20407;-66
2023/11/12 02:11:42;;;;;;;1999.90;999.90;;;4.60;99.90;;;;;;5072366;28;20197;-66
2023/11/12 02:14:08;;;;;;;1999.90;999.90;;;4.70;99.90;;;;;;5072116;28;20413;-66
2023/11/12 02:16:35;;;;;;;1999.90;999.90;;;4.60;99.90;;;;;;5072349;28;20884;-66
2023/11/12 02:19:00;;;;;;;1999.90;999.90;;;4.60;99.90;;;;;;5057133;28;20444;-66
2023/11/12 02:21:31;;;;;;;1999.90;999.90;;;4.60;99.90;;;;;;5077457;28;20405;-67
2023/11/12 02:23:58;;;;;;;1999.90;999.90;;;4.60;99.90;;;;;;5076821;28;20439;-66
2023/11/12 02:26:23;;;;;;;1999.90;999.90;;;4.60;99.90;;;;;;5073126;28;20454;-66
2023/11/12 02:28:49;;;;;;;1999.90;999.90;;;4.60;99.90;;;;;;5081241;28;20409;-67
2023/11/12 02:31:15;;;;;;;1999.90;999.90;;;4.50;99.90;;;;;;5057724;28;20166;-66
2023/11/12 02:33:40;;;;;;;1999.90;999.90;;;4.60;99.90;;;;;;5073722;28;20197;-66
2023/11/12 02:36:07;;;;;;;1999.90;999.90;;;4.50;99.90;;;;;;5072095;28;20948;-66
2023/11/12 02:38:33;;;;;;;1999.90;999.90;;;4.60;99.90;;;;;;5079379;28;20575;-67
2023/11/12 02:41:02;;;;;;;1999.90;999.90;;;4.50;99.90;;;;;;5062137;28;20416;-66
2023/11/12 02:43:28;;;;;;;1999.90;999.90;;;;;;;;;;5078931;28;20421;-67
2023/11/12 02:45:55;;;;;;;1999.90;999.90;;;4.50;99.90;;;;;;5074069;28;21125;-66
2023/11/12 02:48:20;;;;;;;1999.90;999.90;;;4.50;99.90;;;;;;5072031;28;20824;-66
2023/11/12 02:50:47;;;;;;;1999.90;999.90;;;4.50;99.90;;;;;;5071881;28;20433;-66
2023/11/12 02:53:12;;;;;;;1999.90;999.90;;;4.40;99.90;;;;;;5074724;28;20278;-67
2023/11/12 02:55:38;;;;;;;1999.90;999.90;;;4.40;99.90;;;;;;5073051;28;20851;-66
2023/11/12 02:58:04;;;;;;;1999.90;999.90;;;4.40;99.90;;;;;;5071896;28;20170;-67
2023/11/12 03:00:30;;;;;;;1999.90;999.90;;;4.40;99.90;;;;;;5071943;28;20170;-67
2023/11/12 03:02:58;;;;;;;1999.90;999.90;;;4.40;99.90;;;;;;5071519;28;20207;-66
2023/11/12 03:05:25;;;;;;;1999.90;999.90;;;4.40;99.90;;;;;;5071601;28;20515;-67
2023/11/12 03:07:50;;;;;;;1999.90;999.90;;;4.40;99.90;;;;;;5073084;28;20437;-67
2023/11/12 03:10:17;;;;;;;1999.90;999.90;;;4.30;99.90;;;;;;5075899;28;20409;-67
2023/11/12 03:12:43;;;;;;;1999.90;999.90;;;4.30;99.90;;;;;;5071587;28;20425;-67
2023/11/12 03:15:11;;;;;;;1999.90;999.90;;;4.30;99.90;;;;;;5075776;28;20419;-66
2023/11/12 03:17:37;;;;;;;1999.90;999.90;;;4.40;99.90;;;;;;5071630;28;20519;-66
2023/11/12 03:20:08;;;;;;;1999.90;999.90;;;4.30;99.90;;;;;;5077132;28;20453;-67
2023/11/12 03:22:35;;;;;;;1999.90;999.90;;;4.40;99.90;;;;;;5058838;28;20441;-66
2023/11/12 03:25:04;;;;;;;1999.90;999.90;;;4.50;99.90;;;;;;5072284;28;20453;-67
2023/11/12 03:27:30;;;;;;;1999.90;999.90;;;4.70;99.90;;;;;;5080155;28;20420;-68
2023/11/12 03:29:56;;;;;;;1999.90;999.90;;;4.60;99.90;;;;;;5079640;28;20431;-67
2023/11/12 03:32:22;;;;;;;1999.90;999.90;;;4.60;99.90;;;;;;5054939;28;20429;-66
2023/11/12 03:34:50;;;;;;;1999.90;999.90;;;5.10;99.90;;;;;;5071440;28;20586;-66
2023/11/12 03:37:19;;;;;;;1999.90;999.90;;;5.20;99.90;;;;;;5071644;28;20790;-66
2023/11/12 03:39:45;;;;;;;1999.90;999.90;;;5.30;99.90;;;;;;5071556;28;20407;-66
2023/11/12 03:42:11;;;;;;;1999.90;999.90;;;5.30;99.90;;;;;;5071307;28;20498;-66
2023/11/12 03:44:38;;;;;;;1999.90;999.90;;;5.30;99.90;;;;;;5072848;28;20452;-67
2023/11/12 03:47:04;;;;;;;1999.90;999.90;;;5.30;99.90;;;;;;5071335;28;20398;-67
2023/11/12 03:49:30;;;;;;;1999.90;999.90;;;5.30;99.90;;;;;;5071226;28;20409;-67
2023/11/12 03:51:55;;;;;;;1999.90;999.90;;;4.90;99.90;;;;;;5071229;28;20401;-67
2023/11/12 03:54:21;;;;;;;1999.90;999.90;;;5.30;99.90;;;;;;5071006;28;20445;-68
2023/11/12 03:56:47;;;;;;;1999.90;999.90;;;5.10;99.90;;;;;;5071350;28;20275;-66
2023/11/12 03:59:12;;;;;;;1999.90;999.90;;;5.00;99.90;;;;;;5075234;28;20985;-67
2023/11/12 04:01:39;;;;;;;1999.90;999.90;;;4.90;99.90;;;;;;5061598;28;20570;-66
2023/11/12 04:04:06;;;;;;;1999.90;999.90;;;4.90;99.90;;;;;;5082620;22;20489;-65
2023/11/12 04:06:32;;;;;;;1999.90;999.90;;;4.70;99.90;;;;;;5067634;28;20179;-66
2023/11/12 04:08:58;;;;;;;1999.90;999.90;;;4.80;99.90;;;;;;5068129;28;20402;-65
2023/11/12 04:11:23;;;;;;;1999.90;999.90;;;6.40;99.90;;;;;;5068204;28;20192;-65
2023/11/12 04:13:49;;;;;;;1999.90;999.90;;;4.50;99.90;;;;;;5067261;28;20191;-67
2023/11/12 04:16:15;;;;;;;1999.90;999.90;;;5.90;99.90;;;;;;5069867;28;20218;-66
2023/11/12 04:18:40;;;;;;;1999.90;999.90;;;4.30;99.90;;;;;;5071056;28;20764;-66
2023/11/12 04:21:06;;;;;;;1999.90;999.90;;;4.20;99.90;;;;;;5053689;28;20207;-66
2023/11/12 04:23:31;;;;;;;1999.90;999.90;;;4.20;99.90;;;;;;5071345;28;20561;-65
2023/11/12 04:25:57;;;;;;;1999.90;999.90;;;5.40;99.90;;;;;;5071405;28;20230;-65
2023/11/12 04:28:27;;;;;;;1999.90;999.90;;;4.10;99.90;;;;;;5071539;28;20171;-66
2023/11/12 04:30:53;;;;;;;1999.90;999.90;;;4.40;99.90;;;;;;5071010;28;20417;-67
2023/11/12 04:33:19;;;;;;;1999.90;999.90;;;4.00;99.90;;;;;;5064916;28;20469;-65
2023/11/12 04:35:47;;;;;;;1999.90;999.90;;;4.10;99.90;;;;;;5058524;28;20440;-66
2023/11/12 04:38:12;;;;;;;1999.90;999.90;;;4.00;99.90;;;;;;5058553;28;20191;-66
2023/11/12 04:40:39;;;;;;;1999.90;999.90;;;3.90;99.90;;;;;;5058873;28;20493;-66
2023/11/12 04:43:05;;;;;;;1999.90;999.90;;;3.90;99.90;;;;;;5058961;28;20211;-66
2023/11/12 04:45:31;;;;;;;1999.90;999.90;;;3.90;99.90;;;;;;5059029;28;20442;-65
2023/11/12 04:47:56;;;;;;;1999.90;999.90;;;3.80;99.90;;;;;;5058652;28;20965;-65
2023/11/12 04:50:22;;;;;;;1999.90;999.90;;;3.80;99.90;;;;;;5058775;28;20263;-67
2023/11/12 04:52:47;;;;;;;1999.90;999.90;;;3.70;99.90;;;;;;5058308;28;20222;-65
2023/11/12 04:55:13;;;;;;;1999.90;999.90;;;3.70;99.90;;;;;;5058786;28;20175;-66
2023/11/12 04:57:39;;;;;;;1999.90;999.90;;;3.70;99.90;;;;;;5058663;28;20175;-66
2023/11/12 05:00:06;;;;;;;1999.90;999.90;;;3.70;99.90;;;;;;5058683;28;20176;-66
2023/11/12 05:02:32;;;;;;;1999.90;999.90;;;3.70;99.90;;;;;;5057933;28;20218;-65
2023/11/12 05:04:58;;;;;;;1999.90;999.90;;;3.70;99.90;;;;;;5058318;28;20454;-65
2023/11/12 05:07:23;;;;;;;1999.90;999.90;;;3.70;99.90;;;;;;5058367;28;20632;-66
2023/11/12 05:09:49;;;;;;;1999.90;999.90;;;3.70;99.90;;;;;;5058347;28;20434;-66
2023/11/12 05:12:15;;;;;;;1999.90;999.90;;;3.80;99.90;;;;;;5058757;28;20175;-66
2023/11/12 05:14:41;;;;;;;1999.90;999.90;;;3.90;99.90;;;;;;5058406;28;20176;-66
2023/11/12 05:17:06;;;;;;;1999.90;999.90;;;4.00;99.90;;;;;;5059168;28;20788;-66
2023/11/12 05:19:32;;;;;;;1999.90;999.90;;;4.00;99.90;;;;;;5058696;28;20175;-66
2023/11/12 05:21:57;;;;;;;1999.90;999.90;;;4.10;99.90;;;;;;5058906;28;20218;-66
2023/11/12 05:24:23;;;;;;;1999.90;999.90;;;4.20;99.90;;;;;;5058435;28;20195;-65
2023/11/12 05:26:49;;;;;;;1999.90;999.90;;;4.30;99.90;;;;;;5057729;28;20209;-66
2023/11/12 05:29:14;;;;;;;1999.90;999.90;;;4.40;99.90;;;;;;5054762;28;20176;-65
2023/11/12 05:31:40;;;;;;;1999.90;999.90;;;4.50;99.90;;;;;;5057896;28;20234;-65
2023/11/12 05:34:05;;;;;;;1999.90;999.90;;;4.50;99.90;;;;;;5056722;28;20243;-65
2023/11/12 05:36:31;;;;;;;1999.90;999.90;;;4.60;99.90;;;;;;5058269;28;20176;-65
2023/11/12 05:38:58;;;;;;;1999.90;999.90;;;4.50;99.90;;;;;;5058967;28;20182;-65
2023/11/12 05:41:24;;;;;;;1999.90;999.90;;;4.50;99.90;;;;;;5059314;28;20160;-66
2023/11/12 05:43:50;;;;;;;1999.90;999.90;;;4.50;99.90;;;;;;5058141;28;20444;-66
2023/11/12 05:46:16;;;;;;;1999.90;999.90;;;4.50;99.90;;;;;;5057912;28;20203;-66
2023/11/12 05:48:41;;;;;;;1999.90;999.90;;;4.50;99.90;;;;;;5057925;28;20403;-65
2023/11/12 05:51:08;;;;;;;1999.90;999.90;;;4.40;99.90;;;;;;5057859;28;20164;-67
2023/11/12 05:53:35;;;;;;;1999.90;999.90;;;4.40;99.90;;;;;;5057749;28;20184;-65
2023/11/12 05:56:00;;;;;;;1999.90;999.90;;;4.40;99.90;;;;;;5057998;28;20411;-66
2023/11/12 05:58:26;;;;;;;1999.90;999.90;;;4.40;99.90;;;;;;5058006;28;20413;-66
2023/11/12 06:00:54;;;;;;;1999.90;999.90;;;4.40;99.90;;;;;;5057554;28;20186;-65
2023/11/12 06:03:23;;;;;;;1999.90;999.90;;;4.40;99.90;;;;;;5056824;28;20203;-66
2023/11/12 06:05:49;;;;;;;1999.90;999.90;;;4.30;99.90;;;;;;5057317;28;20531;-66
2023/11/12 06:08:15;;;;;;;1999.90;999.90;;;4.30;99.90;;;;;;5057763;28;20406;-65
2023/11/12 06:10:43;;;;;;;1999.90;999.90;;;4.20;99.90;;;;;;5057576;28;20170;-66
2023/11/12 06:13:12;;;;;;;1999.90;999.90;;;4.20;99.90;;;;;;5057304;28;20262;-66
2023/11/12 06:15:37;;;;;;;1999.90;999.90;;;4.20;99.90;;;;;;5057364;28;20869;-66
2023/11/12 06:18:03;;;;;;;1999.90;999.90;;;4.10;99.90;;;;;;5057670;28;20408;-65
2023/11/12 06:20:29;;;;;;;1999.90;999.90;;;4.10;99.90;;;;;;5057584;28;20172;-66
2023/11/12 06:22:56;;;;;;;1999.90;999.90;;;4.10;99.90;;;;;;5057173;28;20225;-65
2023/11/12 06:25:23;;;;;;;1999.90;999.90;;;4.10;99.90;;;;;;5057084;28;20465;-66
2023/11/12 06:27:49;;;;;;;1999.90;999.90;;;4.10;99.90;;;;;;5057732;28;20406;-66
2023/11/12 06:30:15;;;;;;;1999.90;999.90;;;4.10;99.90;;;;;;5057511;28;20479;-65
2023/11/12 06:32:42;;;;;;;1999.90;999.90;;;4.10;99.90;;;;;;5057499;28;20948;-65
2023/11/12 06:35:08;;;;;;;1999.90;999.90;;;4.00;99.90;;;;;;5056699;28;20696;-66
2023/11/12 06:37:33;;;;;;;1999.90;999.90;;;4.00;99.90;;;;;;5057247;28;20406;-65
2023/11/12 06:39:59;;;;;;;1999.90;999.90;;;4.00;99.90;;;;;;5057799;28;20175;-66
2023/11/12 06:42:25;;;;;;;1999.90;999.90;;;4.00;99.90;;;;;;5057204;28;20655;-65
2023/11/12 06:44:51;;;;;;;1999.90;999.90;;;4.00;99.90;;;;;;5057047;28;20485;-66
2023/11/12 06:47:16;;;;;;;1999.90;999.90;;;4.00;99.90;;;;;;5057371;28;20313;-66
2023/11/12 06:49:42;;;;;;;1999.90;999.90;;;4.00;99.90;;;;;;5057312;28;20172;-67
2023/11/12 06:52:07;;;;;;;1999.90;999.90;;;3.90;99.90;;;;;;5057261;28;20537;-65
2023/11/12 06:54:33;;;;;;;1999.90;999.90;;;4.00;99.90;;;;;;5057394;28;20181;-66
2023/11/12 06:56:59;;;;;;;1999.90;999.90;;;4.00;99.90;;;;;;5057260;28;20163;-65
2023/11/12 06:59:25;;;;;;;1999.90;999.90;;;3.90;99.90;;;;;;5057480;28;20175;-66
2023/11/12 07:01:51;;;;;;;1999.90;999.90;;;3.90;99.90;;;;;;5056752;28;20501;-66
2023/11/12 07:04:17;;;;;;;1999.90;999.90;;;3.90;99.90;;;;;;5056450;28;20476;-65
2023/11/12 07:06:43;;;;;;;1999.90;999.90;;;4.00;99.90;;;;;;5056644;28;20167;-66
2023/11/12 07:09:09;;;;;;;1999.90;999.90;;;4.00;99.90;;;;;;5056963;28;20969;-65
2023/11/12 07:11:34;;;;;;;1999.90;999.90;;;4.00;99.90;;;;;;5057586;28;20176;-65
2023/11/12 07:14:00;;;;;;;1999.90;999.90;;;4.00;99.90;;;;;;5056774;28;20217;-65
2023/11/12 07:16:25;;;;;;;1999.90;999.90;;;3.90;99.90;;;;;;5056852;28;20607;-66
2023/11/12 07:18:51;;;;;;;1999.90;999.90;;;3.80;99.90;;;;;;5056903;28;20174;-66
2023/11/12 07:21:24;;;;;;;1999.90;999.90;;;3.80;99.90;;;;;;5057116;28;20199;-65
2023/11/12 07:23:50;;;;;;;1999.90;999.90;;;3.70;99.90;;;;;;5056409;28;20196;-66
2023/11/12 07:26:16;;;;;;;1999.90;999.90;;;3.70;99.90;;;;;;5057339;28;20449;-65
2023/11/12 07:28:42;;;;;;;1999.90;999.90;;;3.70;99.90;;;;;;5056863;28;20673;-66
2023/11/12 07:31:08;;;;;;;1999.90;999.90;;;3.70;99.90;;;;;;5053903;28;20195;-66
2023/11/12 07:33:34;;;;;;;1999.90;999.90;;;3.90;99.90;;;;;;5051478;28;20624;-65
2023/11/12 07:35:59;;;;;;;1999.90;999.90;;;3.90;99.90;;;;;;5051665;28;20449;-66
2023/11/12 07:38:25;;;;;;;1999.90;999.90;;;3.90;99.90;;;;;;5051632;28;20631;-65
2023/11/12 07:40:51;;;;;;;1999.90;999.90;;;4.00;99.90;;;;;;5051590;28;20281;-65
2023/11/12 07:43:16;;;;;;;1999.90;999.90;;;4.00;99.90;;;;;;5051333;28;20191;-64
2023/11/12 07:45:42;;;;;;;1999.90;999.90;;;3.90;99.90;;;;;;5051418;28;20333;-65
2023/11/12 07:48:08;;;;;;;1999.90;999.90;;;3.90;99.90;;;;;;5051414;28;20245;-66
2023/11/12 07:50:35;;;;;;;1999.90;999.90;;;4.00;99.90;;;;;;5058084;28;20167;-66
2023/11/12 07:53:03;;;;;;;1999.90;999.90;;;4.00;99.90;;;;;;5060622;28;20527;-67
2023/11/12 07:55:29;;;;;;;1999.90;999.90;;;4.10;99.90;;;;;;5060880;28;20406;-65
2023/11/12 07:57:55;;;;;;;1999.90;999.90;;;4.10;99.90;;;;;;5061268;28;20539;-66
2023/11/12 08:00:22;;;;;;;1999.90;999.90;;;4.10;99.90;;;;;;5060621;28;20477;-65
2023/11/12 08:02:48;;;;;;;1999.90;999.90;;;4.10;99.90;;;;;;5060170;28;20456;-66
2023/11/12 08:05:14;;;;;;;1999.90;999.90;;;4.20;99.90;;;;;;5059508;28;20472;-66
2023/11/12 08:07:40;;;;;;;1999.90;999.90;;;4.20;99.90;;;;;;5060474;28;20463;-67
2023/11/12 08:10:08;;;;;;;1999.90;999.90;;;4.30;99.90;;;;;;5060366;28;20406;-64
2023/11/12 08:12:34;;;;;;;1999.90;999.90;;;4.30;99.90;;;;;;5059644;28;20426;-66
2023/11/12 08:15:00;;;;;;;1999.90;999.90;;;4.40;99.90;;;;;;5059908;28;20425;-65
2023/11/12 08:17:25;;;;;;;1999.90;999.90;;;4.50;99.90;;;;;;5059730;28;20914;-66
2023/11/12 08:19:52;;;;;;;1999.90;999.90;;;4.60;99.90;;;;;;5059512;28;20160;-65
2023/11/12 08:22:18;;;;;;;1999.90;999.90;;;4.60;99.90;;;;;;5058530;28;20249;-66
2023/11/12 08:24:44;;;;;;;1999.90;999.90;;;4.60;99.90;;;;;;5058998;28;20450;-67
2023/11/12 08:27:09;;;;;;;1999.90;999.90;;;4.70;99.90;;;;;;5057589;28;20402;-64
2023/11/12 08:29:35;;;;;;;1999.90;999.90;;;4.80;99.90;;;;;;5057709;28;20164;-65
2023/11/12 08:32:01;;;;;;;1999.90;999.90;;;5.00;99.90;;;;;;5057687;28;20168;-65
2023/11/12 08:34:26;;;;;;;1999.90;999.90;;;4.90;99.90;;;;;;5058065;28;20413;-65
2023/11/12 08:36:52;;;;;;;1999.90;999.90;;;5.00;99.90;;;;;;5058419;28;20175;-65
2023/11/12 08:39:18;;;;;;;1999.90;999.90;;;5.00;99.90;;;;;;5058422;28;20176;-66
2023/11/12 08:41:48;;;;;;;1999.90;999.90;;;5.00;99.90;;;;;;5059062;28;20932;-65
2023/11/12 08:44:13;;;;;;;1999.90;999.90;;;5.10;99.90;;;;;;5054083;28;20932;-67
2023/11/12 08:46:40;;;;;;;1999.90;999.90;;;5.10;99.90;;;;;;5054133;28;20413;-67
2023/11/12 08:49:06;;;;;;;1999.90;999.90;;;5.10;99.90;;;;;;5054140;28;20294;-67
2023/11/12 08:51:33;;;;;;;1999.90;999.90;;;5.20;99.90;;;;;;5053976;28;20936;-67
2023/11/12 08:53:58;;;;;;;1999.90;999.90;;;5.30;99.90;;;;;;5053735;28;20422;-66
2023/11/12 08:56:25;;;;;;;1999.90;999.90;;;5.30;99.90;;;;;;5053663;28;20536;-66
2023/11/12 08:58:51;;;;;;;1999.90;999.90;;;5.40;99.90;;;;;;5053981;28;20233;-66
2023/11/12 09:01:17;;;;;;;1999.90;999.90;;;5.50;99.90;;;;;;5053574;28;20786;-65
2023/11/12 09:03:42;;;;;;;1999.90;999.90;;;5.50;99.90;;;;;;5053557;28;20260;-65
2023/11/12 09:06:08;;;;;;;1999.90;999.90;;;5.60;99.90;;;;;;5053537;28;20469;-67
2023/11/12 09:08:33;;;;;;;1999.90;999.90;;;5.60;99.90;;;;;;5053619;28;20176;-66
2023/11/12 09:10:59;;;;;;;1999.90;999.90;;;5.70;99.90;;;;;;5053641;28;20175;-66
2023/11/12 09:13:25;;;;;;;1999.90;999.90;;;5.80;99.90;;;;;;5053550;28;20207;-65
2023/11/12 09:15:50;;;;;;;1999.90;999.90;;;5.90;99.90;;;;;;5053613;28;20410;-66
2023/11/12 09:18:16;;;;;;;1999.90;999.90;;;6.10;99.90;;;;;;5053611;28;20254;-66
2023/11/12 09:20:43;;;;;;;1999.90;999.90;;;6.20;99.90;;;;;;5053516;28;20179;-66
2023/11/12 09:23:09;;;;;;;1999.90;999.90;;;6.20;99.90;;;;;;5053064;28;20266;-66
2023/11/12 09:25:35;;;;;;;1999.90;999.90;;;6.20;99.90;;;;;;5053461;28;20458;-65
2023/11/12 09:28:02;;;;;;;1999.90;999.90;;;6.30;99.90;;;;;;5053457;28;20441;-66
2023/11/12 09:30:31;;;;;;;1999.90;999.90;;;6.40;99.90;;;;;;5053478;28;20615;-66
2023/11/12 09:32:56;;;;;;;1999.90;999.90;;;6.40;99.90;;;;;;5052918;28;20937;-66
2023/11/12 09:35:23;;;;;;;1999.90;999.90;;;6.50;99.90;;;;;;5053212;28;20418;-67
2023/11/12 09:37:50;;;;;;;1999.90;999.90;;;6.60;99.90;;;;;;5052579;28;20187;-66
2023/11/12 09:40:16;;;;;;;1999.90;999.90;;;6.70;99.90;;;;;;5053015;28;20418;-66
2023/11/12 09:42:48;;;;;;;1999.90;999.90;;;6.80;99.90;;;;;;5052548;28;20450;-66
2023/11/12 09:45:15;;;;;;;1999.90;999.90;;;6.90;99.90;;;;;;5052195;28;20458;-64
2023/11/12 09:47:53;;;;;;;1999.90;999.90;;;7.00;99.90;;;;;;5047020;28;20429;-65
2023/11/12 09:50:25;;;;;;;1999.90;999.90;;;7.10;99.90;;;;;;5041381;28;20440;-67
2023/11/12 09:52:53;;;;;;;1999.90;999.90;;;7.30;99.90;;;;;;5053303;28;20496;-67
2023/11/12 09:55:20;;;;;;;1999.90;999.90;;;7.30;99.90;;;;;;5058955;28;20446;-66
2023/11/12 09:57:48;;;;;;;1999.90;999.90;;;7.50;99.90;;;;;;5033668;28;20420;-66
2023/11/12 10:00:16;;;;;;;1999.90;999.90;;;7.60;99.90;;;;;;5067633;28;20410;-65
2023/11/12 10:02:44;;;;;;;1999.90;999.90;;;7.70;99.90;;;;;;5067280;28;20470;-66
2023/11/12 10:05:10;;;;;;;1999.90;999.90;;;7.80;99.90;;;;;;5052398;28;20488;-65
2023/11/12 10:07:46;;;;;;;1999.90;999.90;;;7.90;99.90;;;;;;5050303;28;20787;-65
2023/11/12 10:10:20;;;;;;;1999.90;999.90;;;8.00;99.90;;;;;;5052344;28;20498;-66
2023/11/12 10:12:46;;;;;;;1999.90;999.90;;;8.20;99.90;;;;;;5051671;28;20426;-66
2023/11/12 10:15:12;;;;;;;1999.90;999.90;;;8.30;99.90;;;;;;5052012;28;20439;-66
2023/11/12 10:17:45;;;;;;;1999.90;999.90;;;8.50;99.90;;;;;;5052192;28;20443;-65
2023/11/12 10:20:19;;;;;;;1999.90;999.90;;;8.60;99.90;;;;;;5052046;28;20204;-65
2023/11/12 10:22:45;;;;;;;1999.90;999.90;;;8.70;99.90;;;;;;5052115;28;20800;-65
2023/11/12 10:25:10;;;;;;;1999.90;999.90;;;8.80;99.90;;;;;;5051628;28;20447;-66
2023/11/12 10:27:52;;;;;;;1999.90;999.90;;;8.80;99.90;;;;;;5051839;28;20216;-66
2023/11/12 10:30:19;;;;;;;1999.90;999.90;;;8.80;99.90;;;;;;5051862;28;20172;-66
2023/11/12 10:32:46;;;;;;;1999.90;999.90;;;8.90;99.90;;;;;;5052157;28;20457;-66
2023/11/12 10:35:23;;;;;;;1999.90;999.90;;;9.00;99.90;;;;;;5051908;28;20418;-65
2023/11/12 10:38:02;;;;;;;1999.90;999.90;;;9.00;99.90;;;;;;5051648;28;20418;-66
2023/11/12 10:40:31;;;;;;;1999.90;999.90;;;9.10;99.90;;;;;;5051349;28;20451;-66
2023/11/12 10:43:07;;;;;;;1999.90;999.90;;;9.30;99.90;;;;;;5051382;28;20435;-66
2023/11/12 10:45:40;;;;;;;1999.90;999.90;;;9.50;99.90;;;;;;5051927;28;20888;-65
2023/11/12 10:48:09;;;;;;;1999.90;999.90;;;9.80;99.90;;;;;;5044165;28;20437;-66
2023/11/12 10:50:37;;;;;;;1999.90;999.90;;;10.10;99.90;;;;;;5051143;28;20431;-65
2023/11/12 10:53:05;;;;;;;1999.90;999.90;;;10.50;99.90;;;;;;5028896;28;20448;-65
2023/11/12 10:55:31;;;;;;;1999.90;999.90;;;10.90;99.90;;;;;;5036952;28;20527;-66
2023/11/12 10:57:59;;;;;;;1999.90;999.90;;;11.30;99.90;;;;;;5047233;28;21031;-66
2023/11/12 11:00:25;;;;;;;1999.90;999.90;;;11.50;99.90;;;;;;5048941;28;20582;-65
2023/11/12 11:02:52;;;;;;;1999.90;999.90;;;11.60;99.90;;;;;;5049025;28;21013;-65
2023/11/12 11:05:18;;;;;;;1999.90;999.90;;;11.70;99.90;;;;;;5049621;28;20451;-65
2023/11/12 11:07:48;;;;;;;1999.90;999.90;;;11.70;99.90;;;;;;5049566;28;20398;-65
2023/11/12 11:10:17;;;;;;;1999.90;999.90;;;11.60;99.90;;;;;;5048266;28;20771;-65
2023/11/12 11:12:43;;;;;;;1999.90;999.90;;;11.70;99.90;;;;;;5049461;28;20441;-67
2023/11/12 11:15:42;;;;;;;1999.90;999.90;;;11.70;99.90;;;;;;5048096;28;20408;-66
2023/11/12 11:18:28;;;;;;;1999.90;999.90;;;12.00;99.90;;;;;;5047451;28;20501;-66
2023/11/12 11:21:03;;;;;;;1999.90;999.90;;;12.00;99.90;;;;;;5048524;28;20468;-65
2023/11/12 11:23:52;;;;;;;1999.90;999.90;;;12.00;99.90;;;;;;5048218;28;20421;-66
2023/11/12 11:26:47;;;;;;;1999.90;999.90;;;11.80;99.90;;;;;;5053422;28;20451;-67
2023/11/12 11:29:13;;;;;;;1999.90;999.90;;;11.70;99.90;;;;;;5035296;28;20488;-66
2023/11/12 11:31:45;;;;;;;1999.90;999.90;;;11.50;99.90;;;;;;5051904;28;20419;-66
2023/11/12 11:34:12;;;;;;;1999.90;999.90;;;11.50;99.90;;;;;;5050523;28;20822;-67
2023/11/12 11:36:40;;;;;;;1999.90;999.90;;;11.40;99.90;;;;;;5045906;28;20831;-66
2023/11/12 11:39:15;;;;;;;1999.90;999.90;;;11.30;99.90;;;;;;5051113;28;20418;-66
2023/11/12 11:41:53;;;;;;;1999.90;999.90;;;11.30;99.90;;;;;;5050889;28;20421;-65
2023/11/12 11:44:44;;;;;;;1999.90;999.90;;;11.30;99.90;;;;;;5050943;28;20433;-66
2023/11/12 11:47:21;;;;;;;1999.90;999.90;;;11.30;99.90;;;;;;5052136;28;20456;-67
2023/11/12 11:49:59;;;;;;;1999.90;999.90;;;11.30;99.90;;;;;;5047559;28;20436;-66
2023/11/12 11:52:26;;;;;;;1999.90;999.90;;;11.40;99.90;;;;;;5052006;28;20781;-66
2023/11/12 11:54:54;;;;;;;1999.90;999.90;;;11.30;99.90;;;;;;5051675;28;20943;-67
2023/11/12 11:57:24;;;;;;;1999.90;999.90;;;11.30;99.90;;;;;;5052908;28;20575;-66
2023/11/12 11:59:51;;;;;;;1999.90;999.90;;;11.30;99.90;;;;;;5064083;28;20426;-63
2023/11/12 12:02:16;;;;;;;1999.90;999.90;;;11.30;99.90;;;;;;5064982;28;20430;-64
2023/11/12 12:04:47;;;;;;;1999.90;999.90;;;11.50;99.90;;;;;;5057591;28;20492;-65
2023/11/12 12:07:24;;;;;;;1999.90;999.90;;;11.70;99.90;;;;;;5034752;28;20168;-66
2023/11/12 12:09:52;;;;;;;1999.90;999.90;;;11.80;99.90;;;;;;5051368;28;20421;-67